Time,TemperatureF,DewpointF,PressureIn,WindDirection,WindDirectionDegrees,WindSpeedMPH,WindSpeedGustMPH,Humidity,HourlyPrecipIn,Conditions,Clouds,dailyrainin,SolarRadiationWatts/m^2,SoftwareType,DateUTC
2013-04-21 00:12:00,31.0,30.0,-100.00,SE,124,11.0,17.0,96,0.00,,,0.00,0.000000,,2013-04-21 05:12:00,
2013-04-21 00:22:00,31.0,30.0,-100.00,SE,124,11.0,17.0,96,0.00,,,0.00,0.000000,,2013-04-21 05:22:00,
2013-04-21 00:32:00,31.0,30.0,-100.00,SE,124,11.0,17.0,96,0.00,,,0.00,0.000000,,2013-04-21 05:32:00,
2013-04-21 00:42:00,31.0,30.0,-100.00,SE,124,11.0,17.0,96,0.00,,,0.00,0.000000,,2013-04-21 05:42:00,
2013-04-21 00:51:00,32.0,31.0,-100.00,ESE,122,12.0,17.0,95,0.00,,,0.00,0.000000,,2013-04-21 05:51:00,
2013-04-21 01:22:00,32.0,31.0,-100.00,ESE,122,12.0,17.0,95,0.00,,,0.00,0.000000,,2013-04-21 06:22:00,
2013-04-21 01:32:00,32.0,31.0,-100.00,ESE,122,12.0,17.0,95,0.00,,,0.00,0.000000,,2013-04-21 06:32:00,
2013-04-21 01:42:00,32.0,31.0,-100.00,ESE,122,12.0,17.0,95,0.00,,,0.00,0.000000,,2013-04-21 06:42:00,
2013-04-21 01:51:00,32.0,31.0,-100.00,ESE,117,10.0,18.0,95,0.00,,,0.00,0.000000,,2013-04-21 06:51:00,
2013-04-21 02:21:00,32.0,31.0,-100.00,ESE,117,10.0,18.0,95,0.00,,,0.00,0.000000,,2013-04-21 07:21:00,
2013-04-21 02:32:00,32.0,31.0,-100.00,ESE,117,10.0,18.0,95,0.00,,,0.00,0.000000,,2013-04-21 07:32:00,
2013-04-21 02:42:00,32.0,31.0,-100.00,ESE,117,10.0,18.0,95,0.00,,,0.00,0.000000,,2013-04-21 07:42:00,
2013-04-21 02:51:00,32.0,31.0,-100.00,ESE,117,10.0,19.0,95,0.00,,,0.00,0.000000,,2013-04-21 07:51:00,
2013-04-21 03:21:00,32.0,31.0,-100.00,ESE,117,10.0,19.0,95,0.00,,,0.00,0.000000,,2013-04-21 08:21:00,
2013-04-21 03:32:00,32.0,31.0,-100.00,ESE,117,10.0,19.0,95,0.00,,,0.00,0.000000,,2013-04-21 08:32:00,
2013-04-21 03:42:00,32.0,31.0,-100.00,ESE,117,10.0,19.0,95,0.00,,,0.00,0.000000,,2013-04-21 08:42:00,
2013-04-21 03:51:00,33.0,31.0,-100.00,ESE,118,9.0,16.0,94,0.00,,,0.00,0.000000,,2013-04-21 08:51:00,
2013-04-21 04:12:00,33.0,31.0,-100.00,ESE,118,9.0,16.0,94,0.00,,,0.00,0.000000,,2013-04-21 09:12:00,
2013-04-21 04:21:00,33.0,31.0,-100.00,ESE,118,9.0,16.0,94,0.00,,,0.00,0.000000,,2013-04-21 09:21:00,
2013-04-21 04:32:00,33.0,31.0,-100.00,ESE,118,9.0,16.0,94,0.00,,,0.00,0.000000,,2013-04-21 09:32:00,
2013-04-21 04:43:00,33.0,31.0,-100.00,ESE,118,9.0,16.0,94,0.00,,,0.00,0.000000,,2013-04-21 09:43:00,
2013-04-21 04:51:00,34.0,32.0,-100.00,ESE,122,11.0,17.0,91,0.00,,,0.00,0.000000,,2013-04-21 09:51:00,
2013-04-21 05:12:00,34.0,32.0,-100.00,ESE,122,11.0,17.0,91,0.00,,,0.00,0.000000,,2013-04-21 10:12:00,
2013-04-21 05:22:00,34.0,32.0,-100.00,ESE,122,11.0,17.0,91,0.00,,,0.00,0.000000,,2013-04-21 10:22:00,
2013-04-21 05:32:00,34.0,32.0,-100.00,ESE,122,11.0,17.0,91,0.00,,,0.00,0.000000,,2013-04-21 10:32:00,
2013-04-21 05:42:00,34.0,32.0,-100.00,ESE,122,11.0,17.0,91,0.00,,,0.00,0.000000,,2013-04-21 10:42:00,
2013-04-21 05:51:00,34.0,31.0,-100.00,ESE,121,11.0,18.0,87,0.01,,,0.01,0.000000,,2013-04-21 10:51:00,
2013-04-21 06:12:00,34.0,31.0,-100.00,ESE,121,11.0,18.0,87,0.01,,,0.01,0.000000,,2013-04-21 11:12:00,
2013-04-21 06:22:00,34.0,31.0,-100.00,ESE,121,11.0,18.0,87,0.01,,,0.01,0.000000,,2013-04-21 11:22:00,
2013-04-21 06:34:00,34.0,31.0,-100.00,ESE,121,11.0,18.0,87,0.01,,,0.01,0.000000,,2013-04-21 11:34:00,
2013-04-21 06:42:00,34.0,31.0,-100.00,ESE,121,11.0,18.0,87,0.01,,,0.01,0.000000,,2013-04-21 11:42:00,
2013-04-21 06:51:00,35.0,30.0,-100.00,SE,129,11.0,17.0,83,0.00,,,0.01,5.000000,,2013-04-21 11:51:00,
2013-04-21 07:12:00,35.0,30.0,-100.00,SE,129,11.0,17.0,83,0.00,,,0.01,5.000000,,2013-04-21 12:12:00,
2013-04-21 07:22:00,35.0,30.0,-100.00,SE,129,11.0,17.0,83,0.00,,,0.01,5.000000,,2013-04-21 12:22:00,
2013-04-21 07:32:00,35.0,30.0,-100.00,SE,129,11.0,17.0,83,0.00,,,0.01,5.000000,,2013-04-21 12:32:00,
2013-04-21 07:42:00,35.0,30.0,-100.00,SE,129,11.0,17.0,83,0.00,,,0.01,5.000000,,2013-04-21 12:42:00,
2013-04-21 07:51:00,36.0,30.0,-100.00,SE,129,12.0,20.0,80,0.00,,,0.01,110.000000,,2013-04-21 12:51:00,
2013-04-21 08:12:00,36.0,30.0,-100.00,SE,129,12.0,20.0,80,0.00,,,0.01,110.000000,,2013-04-21 13:12:00,
2013-04-21 08:21:00,36.0,30.0,-100.00,SE,129,12.0,20.0,80,0.00,,,0.01,110.000000,,2013-04-21 13:21:00,
2013-04-21 08:32:00,36.0,30.0,-100.00,SE,129,12.0,20.0,80,0.00,,,0.01,110.000000,,2013-04-21 13:32:00,
2013-04-21 08:42:00,36.0,30.0,-100.00,SE,129,12.0,20.0,80,0.00,,,0.01,110.000000,,2013-04-21 13:42:00,
2013-04-21 08:51:00,37.0,32.0,-100.00,SE,135,11.0,18.0,83,0.00,,,0.01,201.000000,,2013-04-21 13:51:00,
2013-04-21 09:11:00,37.0,32.0,-100.00,SE,135,11.0,18.0,83,0.00,,,0.01,201.000000,,2013-04-21 14:11:00,
2013-04-21 09:21:00,37.0,32.0,-100.00,SE,135,11.0,18.0,83,0.00,,,0.01,201.000000,,2013-04-21 14:21:00,
2013-04-21 09:32:00,37.0,32.0,-100.00,SE,135,11.0,18.0,83,0.00,,,0.01,201.000000,,2013-04-21 14:32:00,
2013-04-21 09:42:00,37.0,32.0,-100.00,SE,135,11.0,18.0,83,0.00,,,0.01,201.000000,,2013-04-21 14:42:00,
2013-04-21 09:51:00,40.0,34.0,-100.00,SE,142,15.0,20.0,79,0.00,,,0.01,365.000000,,2013-04-21 14:51:00,
2013-04-21 10:11:00,40.0,34.0,-100.00,SE,142,15.0,20.0,79,0.00,,,0.01,365.000000,,2013-04-21 15:11:00,
2013-04-21 10:22:00,40.0,34.0,-100.00,SE,142,15.0,20.0,79,0.00,,,0.01,365.000000,,2013-04-21 15:22:00,
2013-04-21 10:33:00,40.0,34.0,-100.00,SE,142,15.0,20.0,79,0.00,,,0.01,365.000000,,2013-04-21 15:33:00,
2013-04-21 10:43:00,40.0,34.0,-100.00,SE,142,15.0,20.0,79,0.00,,,0.01,365.000000,,2013-04-21 15:43:00,
2013-04-21 10:51:00,43.0,35.0,-100.00,SSE,152,14.0,22.0,73,0.00,,,0.01,578.000000,,2013-04-21 15:51:00,
2013-04-21 11:12:00,43.0,35.0,-100.00,SSE,152,14.0,22.0,73,0.00,,,0.01,578.000000,,2013-04-21 16:12:00,
2013-04-21 11:23:00,43.0,35.0,-100.00,SSE,152,14.0,22.0,73,0.00,,,0.01,578.000000,,2013-04-21 16:23:00,
2013-04-21 11:33:00,43.0,35.0,-100.00,SSE,152,14.0,22.0,73,0.00,,,0.01,578.000000,,2013-04-21 16:33:00,
2013-04-21 11:42:00,43.0,35.0,-100.00,SSE,152,14.0,22.0,73,0.00,,,0.01,578.000000,,2013-04-21 16:42:00,
2013-04-21 11:51:00,42.0,35.0,-100.00,SSE,157,14.0,23.0,75,0.00,,,0.01,444.000000,,2013-04-21 16:51:00,
2013-04-21 12:12:00,42.0,35.0,-100.00,SSE,157,14.0,23.0,75,0.00,,,0.01,444.000000,,2013-04-21 17:12:00,
2013-04-21 12:23:00,42.0,35.0,-100.00,SSE,157,14.0,23.0,75,0.00,,,0.01,444.000000,,2013-04-21 17:23:00,
2013-04-21 12:32:00,42.0,35.0,-100.00,SSE,157,14.0,23.0,75,0.00,,,0.01,444.000000,,2013-04-21 17:32:00,
2013-04-21 12:42:00,42.0,35.0,-100.00,SSE,157,14.0,23.0,75,0.00,,,0.01,444.000000,,2013-04-21 17:42:00,
2013-04-21 12:51:00,44.0,35.0,-100.00,SSE,157,13.0,18.0,71,0.00,,,0.01,284.000000,,2013-04-21 17:51:00,
2013-04-21 13:11:00,44.0,35.0,-100.00,SSE,157,13.0,18.0,71,0.00,,,0.01,284.000000,,2013-04-21 18:11:00,
2013-04-21 13:22:00,44.0,35.0,-100.00,SSE,157,13.0,18.0,71,0.00,,,0.01,284.000000,,2013-04-21 18:22:00,
2013-04-21 13:32:00,44.0,35.0,-100.00,SSE,157,13.0,18.0,71,0.00,,,0.01,284.000000,,2013-04-21 18:32:00,
2013-04-21 13:42:00,44.0,35.0,-100.00,SSE,157,13.0,18.0,71,0.00,,,0.01,284.000000,,2013-04-21 18:42:00,
2013-04-21 13:51:00,41.0,38.0,-100.00,SSE,153,6.0,16.0,90,0.05,,,0.06,156.000000,,2013-04-21 18:51:00,
2013-04-21 14:12:00,41.0,38.0,-100.00,SSE,153,6.0,16.0,90,0.05,,,0.06,156.000000,,2013-04-21 19:12:00,
2013-04-21 14:21:00,41.0,38.0,-100.00,SSE,153,6.0,16.0,90,0.05,,,0.06,156.000000,,2013-04-21 19:21:00,
2013-04-21 14:32:00,41.0,38.0,-100.00,SSE,153,6.0,16.0,90,0.05,,,0.06,156.000000,,2013-04-21 19:32:00,
2013-04-21 14:42:00,41.0,38.0,-100.00,SSE,153,6.0,16.0,90,0.05,,,0.06,156.000000,,2013-04-21 19:42:00,
2013-04-21 14:51:00,41.0,39.0,-100.00,SW,218,5.0,9.0,93,0.19,,,0.25,75.000000,,2013-04-21 19:51:00,
2013-04-21 15:11:00,41.0,39.0,-100.00,SW,218,5.0,9.0,93,0.19,,,0.25,75.000000,,2013-04-21 20:11:00,
2013-04-21 15:22:00,41.0,39.0,-100.00,SW,218,5.0,9.0,93,0.19,,,0.25,75.000000,,2013-04-21 20:22:00,
2013-04-21 15:32:00,41.0,39.0,-100.00,SW,218,5.0,9.0,93,0.19,,,0.25,75.000000,,2013-04-21 20:32:00,
2013-04-21 15:42:00,41.0,39.0,-100.00,SW,218,5.0,9.0,93,0.19,,,0.25,75.000000,,2013-04-21 20:42:00,
2013-04-21 15:51:00,41.0,40.0,-100.00,SSW,212,5.0,9.0,95,0.01,,,0.26,65.000000,,2013-04-21 20:51:00,
2013-04-21 16:12:00,41.0,40.0,-100.00,SSW,212,5.0,9.0,95,0.01,,,0.26,65.000000,,2013-04-21 21:12:00,
2013-04-21 16:21:00,41.0,40.0,-100.00,SSW,212,5.0,9.0,95,0.01,,,0.26,65.000000,,2013-04-21 21:21:00,
2013-04-21 16:33:00,41.0,40.0,-100.00,SSW,212,5.0,9.0,95,0.01,,,0.26,65.000000,,2013-04-21 21:33:00,
2013-04-21 16:43:00,41.0,40.0,-100.00,SSW,212,5.0,9.0,95,0.01,,,0.26,65.000000,,2013-04-21 21:43:00,
2013-04-21 16:51:00,42.0,37.0,-100.00,WNW,282,10.0,15.0,83,0.00,,,0.26,182.000000,,2013-04-21 21:51:00,
2013-04-21 17:22:00,42.0,37.0,-100.00,WNW,282,10.0,15.0,83,0.00,,,0.26,182.000000,,2013-04-21 22:22:00,
2013-04-21 17:33:00,42.0,37.0,-100.00,WNW,282,10.0,15.0,83,0.00,,,0.26,182.000000,,2013-04-21 22:33:00,
2013-04-21 17:43:00,42.0,37.0,-100.00,WNW,282,10.0,15.0,83,0.00,,,0.26,182.000000,,2013-04-21 22:43:00,
2013-04-21 17:51:00,41.0,36.0,-100.00,NW,307,15.0,19.0,83,0.00,,,0.26,216.000000,,2013-04-21 22:51:00,
2013-04-21 18:12:00,41.0,36.0,-100.00,NW,307,15.0,19.0,83,0.00,,,0.26,216.000000,,2013-04-21 23:12:00,
2013-04-21 18:22:00,41.0,36.0,-100.00,NW,307,15.0,19.0,83,0.00,,,0.26,216.000000,,2013-04-21 23:22:00,
2013-04-21 18:32:00,41.0,36.0,-100.00,NW,307,15.0,19.0,83,0.00,,,0.26,216.000000,,2013-04-21 23:32:00,
2013-04-21 18:42:00,41.0,36.0,-100.00,NW,307,15.0,19.0,83,0.00,,,0.26,216.000000,,2013-04-21 23:42:00,
2013-04-21 18:51:00,41.0,36.0,-100.00,NW,308,11.0,20.0,83,0.00,,,0.26,169.000000,,2013-04-21 23:51:00,
2013-04-21 19:11:00,41.0,36.0,-100.00,NW,308,11.0,20.0,83,0.00,,,0.26,169.000000,,2013-04-22 00:11:00,
2013-04-21 19:22:00,41.0,36.0,-100.00,NW,308,11.0,20.0,83,0.00,,,0.26,169.000000,,2013-04-22 00:22:00,
2013-04-21 19:32:00,41.0,36.0,-100.00,NW,308,11.0,20.0,83,0.00,,,0.26,169.000000,,2013-04-22 00:32:00,
2013-04-21 19:42:00,41.0,36.0,-100.00,NW,308,11.0,20.0,83,0.00,,,0.26,169.000000,,2013-04-22 00:42:00,
2013-04-21 19:51:00,38.0,34.0,-100.00,NW,316,15.0,20.0,85,0.00,,,0.26,40.000000,,2013-04-22 00:51:00,
2013-04-21 20:21:00,38.0,34.0,-100.00,NW,316,15.0,20.0,85,0.00,,,0.26,40.000000,,2013-04-22 01:21:00,
2013-04-21 20:32:00,38.0,34.0,-100.00,NW,316,15.0,20.0,85,0.00,,,0.26,40.000000,,2013-04-22 01:32:00,
2013-04-21 20:42:00,38.0,34.0,-100.00,NW,316,15.0,20.0,85,0.00,,,0.26,40.000000,,2013-04-22 01:42:00,
2013-04-21 20:51:00,37.0,32.0,-100.00,NW,311,13.0,18.0,82,0.00,,,0.26,4.000000,,2013-04-22 01:51:00,
2013-04-21 21:11:00,37.0,32.0,-100.00,NW,311,13.0,18.0,82,0.00,,,0.26,4.000000,,2013-04-22 02:11:00,
2013-04-21 21:21:00,37.0,32.0,-100.00,NW,311,13.0,18.0,82,0.00,,,0.26,4.000000,,2013-04-22 02:21:00,
2013-04-21 21:32:00,37.0,32.0,-100.00,NW,311,13.0,18.0,82,0.00,,,0.26,4.000000,,2013-04-22 02:32:00,
2013-04-21 21:42:00,37.0,32.0,-100.00,NW,311,13.0,18.0,82,0.00,,,0.26,4.000000,,2013-04-22 02:42:00,
2013-04-21 21:51:00,35.0,31.0,-100.00,NW,320,8.0,18.0,85,0.00,,,0.26,0.000000,,2013-04-22 02:51:00,
2013-04-21 22:11:00,35.0,31.0,-100.00,NW,320,8.0,18.0,85,0.00,,,0.26,0.000000,,2013-04-22 03:11:00,
2013-04-21 22:22:00,35.0,31.0,-100.00,NW,320,8.0,18.0,85,0.00,,,0.26,0.000000,,2013-04-22 03:22:00,
2013-04-21 22:33:00,35.0,31.0,-100.00,NW,320,8.0,18.0,85,0.00,,,0.26,0.000000,,2013-04-22 03:33:00,
2013-04-21 22:43:00,35.0,31.0,-100.00,NW,320,8.0,18.0,85,0.00,,,0.26,0.000000,,2013-04-22 03:43:00,
2013-04-21 22:51:00,34.0,30.0,-100.00,NW,320,8.0,12.0,84,0.00,,,-99.99,0.000000,,2013-04-22 03:51:00,
2013-04-21 23:12:00,34.0,30.0,-100.00,NW,320,8.0,12.0,84,0.00,,,-99.99,0.000000,,2013-04-22 04:12:00,
2013-04-21 23:23:00,34.0,30.0,-100.00,NW,320,8.0,12.0,84,0.00,,,-99.99,0.000000,,2013-04-22 04:23:00,
2013-04-21 23:33:00,34.0,30.0,-100.00,NW,320,8.0,12.0,84,0.00,,,-99.99,0.000000,,2013-04-22 04:33:00,
2013-04-21 23:43:00,34.0,30.0,-100.00,NW,320,8.0,12.0,84,0.00,,,-99.99,0.000000,,2013-04-22 04:43:00,
2013-04-21 23:51:00,33.0,29.0,-100.00,NNW,335,7.0,14.0,85,0.00,,,0.26,0.000000,,2013-04-22 04:51:00,